sensor_id;sensor_type;location;lat;lon;timestamp;temperature;humidity
40257;DHT22;25977;45.462;9.210;2022-12-18T00:01:18;9.70;92.10
40257;DHT22;25977;45.462;9.210;2022-12-18T00:03:45;9.70;92.10
40257;DHT22;25977;45.462;9.210;2022-12-18T00:06:11;9.70;92.00
40257;DHT22;25977;45.462;9.210;2022-12-18T00:08:37;9.70;92.00
40257;DHT22;25977;45.462;9.210;2022-12-18T00:11:04;9.70;92.00
40257;DHT22;25977;45.462;9.210;2022-12-18T00:13:30;9.70;92.00
40257;DHT22;25977;45.462;9.210;2022-12-18T00:16:05;9.70;92.00
40257;DHT22;25977;45.462;9.210;2022-12-18T00:18:32;9.70;92.00
40257;DHT22;25977;45.462;9.210;2022-12-18T00:21:00;9.70;92.00
40257;DHT22;25977;45.462;9.210;2022-12-18T00:23:26;9.70;92.00
40257;DHT22;25977;45.462;9.210;2022-12-18T00:25:52;9.70;92.00
40257;DHT22;25977;45.462;9.210;2022-12-18T00:28:18;9.80;92.00
40257;DHT22;25977;45.462;9.210;2022-12-18T00:30:45;9.60;92.00
40257;DHT22;25977;45.462;9.210;2022-12-18T00:33:11;9.60;92.00
40257;DHT22;25977;45.462;9.210;2022-12-18T00:35:37;9.60;92.10
40257;DHT22;25977;45.462;9.210;2022-12-18T00:38:03;9.60;92.10
40257;DHT22;25977;45.462;9.210;2022-12-18T00:40:28;9.60;92.10
40257;DHT22;25977;45.462;9.210;2022-12-18T00:42:54;9.60;92.10
40257;DHT22;25977;45.462;9.210;2022-12-18T00:45:28;9.70;92.20
40257;DHT22;25977;45.462;9.210;2022-12-18T00:47:55;9.60;92.20
40257;DHT22;25977;45.462;9.210;2022-12-18T00:50:22;9.60;92.10
40257;DHT22;25977;45.462;9.210;2022-12-18T00:52:48;9.60;92.20
40257;DHT22;25977;45.462;9.210;2022-12-18T00:55:14;9.60;92.20
40257;DHT22;25977;45.462;9.210;2022-12-18T00:57:40;9.50;92.20
40257;DHT22;25977;45.462;9.210;2022-12-18T01:00:08;9.60;92.20
40257;DHT22;25977;45.462;9.210;2022-12-18T01:02:34;9.60;92.30
40257;DHT22;25977;45.462;9.210;2022-12-18T01:05:00;9.60;92.30
40257;DHT22;25977;45.462;9.210;2022-12-18T01:07:26;9.70;92.30
40257;DHT22;25977;45.462;9.210;2022-12-18T01:09:52;9.60;92.30
40257;DHT22;25977;45.462;9.210;2022-12-18T01:12:18;9.50;92.20
40257;DHT22;25977;45.462;9.210;2022-12-18T01:14:43;9.60;92.20
40257;DHT22;25977;45.462;9.210;2022-12-18T01:17:09;9.50;92.10
40257;DHT22;25977;45.462;9.210;2022-12-18T01:19:35;9.50;92.10
40257;DHT22;25977;45.462;9.210;2022-12-18T01:22:00;9.50;92.10
40257;DHT22;25977;45.462;9.210;2022-12-18T01:24:26;9.50;92.10
40257;DHT22;25977;45.462;9.210;2022-12-18T01:26:52;9.40;92.10
40257;DHT22;25977;45.462;9.210;2022-12-18T01:29:17;9.40;92.10
40257;DHT22;25977;45.462;9.210;2022-12-18T01:31:43;9.40;92.10
40257;DHT22;25977;45.462;9.210;2022-12-18T01:34:09;9.40;92.00
40257;DHT22;25977;45.462;9.210;2022-12-18T01:36:37;9.40;92.10
40257;DHT22;25977;45.462;9.210;2022-12-18T01:39:11;9.40;92.10
40257;DHT22;25977;45.462;9.210;2022-12-18T01:41:38;9.40;92.10
40257;DHT22;25977;45.462;9.210;2022-12-18T01:47:41;9.40;92.00
40257;DHT22;25977;45.462;9.210;2022-12-18T01:50:14;9.30;91.90
40257;DHT22;25977;45.462;9.210;2022-12-18T01:52:42;9.30;91.80
40257;DHT22;25977;45.462;9.210;2022-12-18T01:55:09;9.30;91.70
40257;DHT22;25977;45.462;9.210;2022-12-18T01:57:36;9.30;91.50
40257;DHT22;25977;45.462;9.210;2022-12-18T02:00:10;9.20;91.40
40257;DHT22;25977;45.462;9.210;2022-12-18T02:02:41;9.10;91.30
40257;DHT22;25977;45.462;9.210;2022-12-18T02:05:08;9.10;91.30
40257;DHT22;25977;45.462;9.210;2022-12-18T02:16:08;9.00;91.20
40257;DHT22;25977;45.462;9.210;2022-12-18T02:18:41;9.00;91.10
40257;DHT22;25977;45.462;9.210;2022-12-18T02:26:26;9.00;91.10
40257;DHT22;25977;45.462;9.210;2022-12-18T02:28:56;9.00;91.10
40257;DHT22;25977;45.462;9.210;2022-12-18T02:31:26;9.00;91.10
40257;DHT22;25977;45.462;9.210;2022-12-18T02:33:58;9.00;91.10
40257;DHT22;25977;45.462;9.210;2022-12-18T02:36:27;9.00;91.10
40257;DHT22;25977;45.462;9.210;2022-12-18T02:38:56;9.00;91.10
40257;DHT22;25977;45.462;9.210;2022-12-18T02:41:22;9.30;91.20
40257;DHT22;25977;45.462;9.210;2022-12-18T02:44:06;9.00;91.20
40257;DHT22;25977;45.462;9.210;2022-12-18T02:46:33;9.20;91.20
40257;DHT22;25977;45.462;9.210;2022-12-18T02:54:57;8.90;91.30
40257;DHT22;25977;45.462;9.210;2022-12-18T03:02:41;9.00;91.40
40257;DHT22;25977;45.462;9.210;2022-12-18T03:05:16;8.90;91.30
40257;DHT22;25977;45.462;9.210;2022-12-18T03:08:05;8.90;91.30
40257;DHT22;25977;45.462;9.210;2022-12-18T03:10:39;8.90;91.30
40257;DHT22;25977;45.462;9.210;2022-12-18T03:15:45;8.90;91.20
40257;DHT22;25977;45.462;9.210;2022-12-18T03:18:17;8.90;91.30
40257;DHT22;25977;45.462;9.210;2022-12-18T03:20:46;8.80;91.30
40257;DHT22;25977;45.462;9.210;2022-12-18T03:23:21;8.80;91.30
40257;DHT22;25977;45.462;9.210;2022-12-18T03:25:52;8.80;91.30
40257;DHT22;25977;45.462;9.210;2022-12-18T03:28:22;8.80;91.30
40257;DHT22;25977;45.462;9.210;2022-12-18T03:30:55;8.80;91.30
40257;DHT22;25977;45.462;9.210;2022-12-18T03:33:27;8.80;91.30
40257;DHT22;25977;45.462;9.210;2022-12-18T03:35:57;8.90;91.30
40257;DHT22;25977;45.462;9.210;2022-12-18T03:38:23;8.80;91.30
40257;DHT22;25977;45.462;9.210;2022-12-18T03:41:19;8.80;91.30
40257;DHT22;25977;45.462;9.210;2022-12-18T03:47:07;8.80;91.30
40257;DHT22;25977;45.462;9.210;2022-12-18T03:54:41;8.80;91.30
40257;DHT22;25977;45.462;9.210;2022-12-18T03:57:21;8.80;91.30
40257;DHT22;25977;45.462;9.210;2022-12-18T04:00:09;8.80;91.30
40257;DHT22;25977;45.462;9.210;2022-12-18T04:03:04;8.80;91.30
40257;DHT22;25977;45.462;9.210;2022-12-18T04:05:38;8.90;91.30
40257;DHT22;25977;45.462;9.210;2022-12-18T04:08:06;8.80;91.30
40257;DHT22;25977;45.462;9.210;2022-12-18T04:10:36;8.80;91.30
40257;DHT22;25977;45.462;9.210;2022-12-18T04:16:00;8.70;91.40
40257;DHT22;25977;45.462;9.210;2022-12-18T04:18:27;8.80;91.40
40257;DHT22;25977;45.462;9.210;2022-12-18T04:20:53;8.80;91.40
40257;DHT22;25977;45.462;9.210;2022-12-18T04:23:19;8.80;91.40
40257;DHT22;25977;45.462;9.210;2022-12-18T04:25:46;8.70;91.40
40257;DHT22;25977;45.462;9.210;2022-12-18T04:28:19;8.80;91.40
40257;DHT22;25977;45.462;9.210;2022-12-18T04:30:48;8.70;91.40
40257;DHT22;25977;45.462;9.210;2022-12-18T04:33:17;8.80;91.50
40257;DHT22;25977;45.462;9.210;2022-12-18T04:35:43;8.70;91.50
40257;DHT22;25977;45.462;9.210;2022-12-18T04:38:09;8.90;91.60
40257;DHT22;25977;45.462;9.210;2022-12-18T04:40:36;8.70;91.50
40257;DHT22;25977;45.462;9.210;2022-12-18T04:43:10;8.80;91.50
40257;DHT22;25977;45.462;9.210;2022-12-18T04:45:35;8.70;91.50
40257;DHT22;25977;45.462;9.210;2022-12-18T04:48:02;8.70;91.50
40257;DHT22;25977;45.462;9.210;2022-12-18T04:50:28;8.80;91.50
40257;DHT22;25977;45.462;9.210;2022-12-18T04:52:55;8.80;91.50
40257;DHT22;25977;45.462;9.210;2022-12-18T04:55:21;8.80;91.50
40257;DHT22;25977;45.462;9.210;2022-12-18T04:57:47;8.80;91.40
40257;DHT22;25977;45.462;9.210;2022-12-18T05:00:13;8.80;91.40
40257;DHT22;25977;45.462;9.210;2022-12-18T05:02:39;8.80;91.40
40257;DHT22;25977;45.462;9.210;2022-12-18T05:05:05;8.90;91.40
40257;DHT22;25977;45.462;9.210;2022-12-18T05:07:31;8.80;91.40
40257;DHT22;25977;45.462;9.210;2022-12-18T05:09:57;8.80;91.40
40257;DHT22;25977;45.462;9.210;2022-12-18T05:12:24;8.80;91.40
40257;DHT22;25977;45.462;9.210;2022-12-18T05:14:50;8.80;91.40
40257;DHT22;25977;45.462;9.210;2022-12-18T05:17:16;8.80;91.40
40257;DHT22;25977;45.462;9.210;2022-12-18T05:19:42;8.80;91.40
40257;DHT22;25977;45.462;9.210;2022-12-18T05:22:08;8.80;91.40
40257;DHT22;25977;45.462;9.210;2022-12-18T05:24:34;8.70;91.40
40257;DHT22;25977;45.462;9.210;2022-12-18T05:27:00;8.80;91.50
40257;DHT22;25977;45.462;9.210;2022-12-18T05:29:25;8.80;91.40
40257;DHT22;25977;45.462;9.210;2022-12-18T05:31:51;8.80;91.50
40257;DHT22;25977;45.462;9.210;2022-12-18T05:34:17;8.70;91.50
40257;DHT22;25977;45.462;9.210;2022-12-18T05:36:43;8.70;91.50
40257;DHT22;25977;45.462;9.210;2022-12-18T05:39:09;8.80;91.50
40257;DHT22;25977;45.462;9.210;2022-12-18T05:41:35;8.70;91.50
40257;DHT22;25977;45.462;9.210;2022-12-18T05:44:00;8.70;91.40
40257;DHT22;25977;45.462;9.210;2022-12-18T05:46:26;8.70;91.40
40257;DHT22;25977;45.462;9.210;2022-12-18T05:48:52;8.70;91.40
40257;DHT22;25977;45.462;9.210;2022-12-18T05:51:19;8.70;91.70
40257;DHT22;25977;45.462;9.210;2022-12-18T05:53:46;8.70;91.50
40257;DHT22;25977;45.462;9.210;2022-12-18T05:56:15;8.90;91.50
40257;DHT22;25977;45.462;9.210;2022-12-18T05:58:42;8.70;91.50
40257;DHT22;25977;45.462;9.210;2022-12-18T06:03:36;8.70;91.50
40257;DHT22;25977;45.462;9.210;2022-12-18T06:06:03;8.70;91.50
40257;DHT22;25977;45.462;9.210;2022-12-18T06:08:29;8.70;91.50
40257;DHT22;25977;45.462;9.210;2022-12-18T06:10:54;8.70;91.50
40257;DHT22;25977;45.462;9.210;2022-12-18T06:13:20;8.70;91.50
40257;DHT22;25977;45.462;9.210;2022-12-18T06:15:46;8.70;91.50
40257;DHT22;25977;45.462;9.210;2022-12-18T06:18:12;8.80;91.40
40257;DHT22;25977;45.462;9.210;2022-12-18T06:20:38;8.80;91.40
40257;DHT22;25977;45.462;9.210;2022-12-18T06:23:05;9.00;91.50
40257;DHT22;25977;45.462;9.210;2022-12-18T06:25:31;8.80;91.40
40257;DHT22;25977;45.462;9.210;2022-12-18T06:27:58;8.80;91.50
40257;DHT22;25977;45.462;9.210;2022-12-18T06:30:24;8.80;91.50
40257;DHT22;25977;45.462;9.210;2022-12-18T06:32:50;8.80;91.40
40257;DHT22;25977;45.462;9.210;2022-12-18T06:35:16;8.80;91.40
40257;DHT22;25977;45.462;9.210;2022-12-18T06:37:42;8.80;91.40
40257;DHT22;25977;45.462;9.210;2022-12-18T06:40:08;8.80;91.40
40257;DHT22;25977;45.462;9.210;2022-12-18T06:42:33;8.90;91.40
40257;DHT22;25977;45.462;9.210;2022-12-18T06:44:59;9.30;91.50
40257;DHT22;25977;45.462;9.210;2022-12-18T06:47:25;8.80;91.40
40257;DHT22;25977;45.462;9.210;2022-12-18T06:49:50;8.80;91.60
40257;DHT22;25977;45.462;9.210;2022-12-18T06:52:16;8.80;91.40
40257;DHT22;25977;45.462;9.210;2022-12-18T06:54:42;8.80;91.50
40257;DHT22;25977;45.462;9.210;2022-12-18T06:57:07;8.80;91.40
40257;DHT22;25977;45.462;9.210;2022-12-18T06:59:33;8.70;91.40
40257;DHT22;25977;45.462;9.210;2022-12-18T07:01:59;8.70;91.40
40257;DHT22;25977;45.462;9.210;2022-12-18T07:04:31;8.70;91.40
40257;DHT22;25977;45.462;9.210;2022-12-18T07:06:57;8.80;91.40
40257;DHT22;25977;45.462;9.210;2022-12-18T07:09:23;8.70;91.40
40257;DHT22;25977;45.462;9.210;2022-12-18T07:11:49;8.90;91.40
40257;DHT22;25977;45.462;9.210;2022-12-18T07:14:14;8.80;91.40
40257;DHT22;25977;45.462;9.210;2022-12-18T07:16:40;8.80;91.30
40257;DHT22;25977;45.462;9.210;2022-12-18T07:19:06;8.80;91.30
40257;DHT22;25977;45.462;9.210;2022-12-18T07:21:32;8.70;91.30
40257;DHT22;25977;45.462;9.210;2022-12-18T07:23:57;8.80;91.30
40257;DHT22;25977;45.462;9.210;2022-12-18T07:26:23;8.80;91.30
40257;DHT22;25977;45.462;9.210;2022-12-18T07:28:49;8.70;91.30
40257;DHT22;25977;45.462;9.210;2022-12-18T07:31:17;8.80;91.40
40257;DHT22;25977;45.462;9.210;2022-12-18T07:33:43;8.70;91.30
40257;DHT22;25977;45.462;9.210;2022-12-18T07:36:10;9.00;91.40
40257;DHT22;25977;45.462;9.210;2022-12-18T07:38:36;8.70;91.40
40257;DHT22;25977;45.462;9.210;2022-12-18T07:41:04;8.70;91.30
40257;DHT22;25977;45.462;9.210;2022-12-18T07:43:30;8.70;91.30
40257;DHT22;25977;45.462;9.210;2022-12-18T07:45:56;8.70;91.30
40257;DHT22;25977;45.462;9.210;2022-12-18T07:48:22;8.70;91.30
40257;DHT22;25977;45.462;9.210;2022-12-18T07:50:48;8.70;91.40
40257;DHT22;25977;45.462;9.210;2022-12-18T07:53:14;8.70;91.30
40257;DHT22;25977;45.462;9.210;2022-12-18T07:55:43;8.70;91.30
40257;DHT22;25977;45.462;9.210;2022-12-18T07:58:09;8.70;91.20
40257;DHT22;25977;45.462;9.210;2022-12-18T08:00:35;8.70;91.20
40257;DHT22;25977;45.462;9.210;2022-12-18T08:03:01;8.70;91.20
40257;DHT22;25977;45.462;9.210;2022-12-18T08:05:27;8.80;91.10
40257;DHT22;25977;45.462;9.210;2022-12-18T08:07:53;8.80;91.20
40257;DHT22;25977;45.462;9.210;2022-12-18T08:10:19;8.80;91.10
40257;DHT22;25977;45.462;9.210;2022-12-18T08:12:49;9.00;91.20
40257;DHT22;25977;45.462;9.210;2022-12-18T08:15:15;8.80;91.10
40257;DHT22;25977;45.462;9.210;2022-12-18T08:17:40;8.90;91.10
40257;DHT22;25977;45.462;9.210;2022-12-18T08:20:06;8.80;91.00
40257;DHT22;25977;45.462;9.210;2022-12-18T08:22:36;8.80;91.00
40257;DHT22;25977;45.462;9.210;2022-12-18T08:25:03;8.80;91.00
40257;DHT22;25977;45.462;9.210;2022-12-18T08:27:29;8.90;91.20
40257;DHT22;25977;45.462;9.210;2022-12-18T08:29:55;8.90;91.00
40257;DHT22;25977;45.462;9.210;2022-12-18T08:32:20;8.90;91.00
40257;DHT22;25977;45.462;9.210;2022-12-18T08:34:46;9.10;91.00
40257;DHT22;25977;45.462;9.210;2022-12-18T08:37:12;9.00;90.90
40257;DHT22;25977;45.462;9.210;2022-12-18T08:39:38;9.10;90.90
40257;DHT22;25977;45.462;9.210;2022-12-18T08:42:04;9.10;90.90
40257;DHT22;25977;45.462;9.210;2022-12-18T08:44:48;9.10;90.90
40257;DHT22;25977;45.462;9.210;2022-12-18T08:47:14;9.20;90.80
40257;DHT22;25977;45.462;9.210;2022-12-18T08:49:40;9.20;90.80
40257;DHT22;25977;45.462;9.210;2022-12-18T08:52:06;9.20;90.70
40257;DHT22;25977;45.462;9.210;2022-12-18T08:54:31;9.20;90.70
40257;DHT22;25977;45.462;9.210;2022-12-18T08:56:57;9.30;90.70
40257;DHT22;25977;45.462;9.210;2022-12-18T08:59:23;9.30;90.70
40257;DHT22;25977;45.462;9.210;2022-12-18T09:01:49;9.40;90.60
40257;DHT22;25977;45.462;9.210;2022-12-18T09:04:14;9.40;90.50
40257;DHT22;25977;45.462;9.210;2022-12-18T09:06:40;9.50;90.50
40257;DHT22;25977;45.462;9.210;2022-12-18T09:09:06;9.50;90.50
40257;DHT22;25977;45.462;9.210;2022-12-18T09:11:33;9.50;90.40
40257;DHT22;25977;45.462;9.210;2022-12-18T09:14:00;9.50;90.30
40257;DHT22;25977;45.462;9.210;2022-12-18T09:16:27;9.60;90.40
40257;DHT22;25977;45.462;9.210;2022-12-18T09:18:55;9.60;90.40
40257;DHT22;25977;45.462;9.210;2022-12-18T09:21:26;9.60;90.50
40257;DHT22;25977;45.462;9.210;2022-12-18T09:23:56;9.70;90.40
40257;DHT22;25977;45.462;9.210;2022-12-18T09:26:23;9.70;90.20
40257;DHT22;25977;45.462;9.210;2022-12-18T09:28:49;9.70;90.20
40257;DHT22;25977;45.462;9.210;2022-12-18T09:31:16;9.60;90.10
40257;DHT22;25977;45.462;9.210;2022-12-18T09:33:42;9.70;90.20
40257;DHT22;25977;45.462;9.210;2022-12-18T09:36:11;9.70;90.30
40257;DHT22;25977;45.462;9.210;2022-12-18T09:38:37;9.70;90.20
40257;DHT22;25977;45.462;9.210;2022-12-18T09:41:23;9.70;90.20
40257;DHT22;25977;45.462;9.210;2022-12-18T09:43:55;9.70;90.20
40257;DHT22;25977;45.462;9.210;2022-12-18T09:46:28;9.80;90.10
40257;DHT22;25977;45.462;9.210;2022-12-18T09:48:57;9.80;90.00
40257;DHT22;25977;45.462;9.210;2022-12-18T09:51:32;9.70;90.00
40257;DHT22;25977;45.462;9.210;2022-12-18T09:54:05;9.80;90.00
40257;DHT22;25977;45.462;9.210;2022-12-18T09:56:36;9.80;89.80
40257;DHT22;25977;45.462;9.210;2022-12-18T09:59:03;9.80;89.80
40257;DHT22;25977;45.462;9.210;2022-12-18T10:01:31;9.90;89.80
40257;DHT22;25977;45.462;9.210;2022-12-18T10:03:57;9.90;89.70
40257;DHT22;25977;45.462;9.210;2022-12-18T10:09:57;9.90;89.60
40257;DHT22;25977;45.462;9.210;2022-12-18T10:12:42;9.90;89.70
40257;DHT22;25977;45.462;9.210;2022-12-18T10:15:36;10.00;89.60
40257;DHT22;25977;45.462;9.210;2022-12-18T10:20:51;10.00;89.50
40257;DHT22;25977;45.462;9.210;2022-12-18T10:23:28;10.00;89.30
40257;DHT22;25977;45.462;9.210;2022-12-18T10:26:15;10.00;89.10
40257;DHT22;25977;45.462;9.210;2022-12-18T10:28:42;10.00;89.10
40257;DHT22;25977;45.462;9.210;2022-12-18T10:31:17;10.00;89.40
40257;DHT22;25977;45.462;9.210;2022-12-18T10:33:43;10.00;89.80
40257;DHT22;25977;45.462;9.210;2022-12-18T10:36:09;10.10;89.30
40257;DHT22;25977;45.462;9.210;2022-12-18T10:38:36;10.10;89.50
40257;DHT22;25977;45.462;9.210;2022-12-18T10:41:05;10.20;89.20
40257;DHT22;25977;45.462;9.210;2022-12-18T10:46:11;10.30;89.10
40257;DHT22;25977;45.462;9.210;2022-12-18T10:51:27;10.30;89.30
40257;DHT22;25977;45.462;9.210;2022-12-18T10:54:03;10.40;89.40
40257;DHT22;25977;45.462;9.210;2022-12-18T10:56:31;10.40;89.10
40257;DHT22;25977;45.462;9.210;2022-12-18T10:59:03;10.60;89.10
40257;DHT22;25977;45.462;9.210;2022-12-18T11:02:07;10.60;88.70
40257;DHT22;25977;45.462;9.210;2022-12-18T11:04:52;10.70;88.80
40257;DHT22;25977;45.462;9.210;2022-12-18T11:07:18;10.70;88.90
40257;DHT22;25977;45.462;9.210;2022-12-18T11:10:00;10.80;88.50
40257;DHT22;25977;45.462;9.210;2022-12-18T11:12:28;10.80;88.10
40257;DHT22;25977;45.462;9.210;2022-12-18T11:14:55;10.80;88.20
40257;DHT22;25977;45.462;9.210;2022-12-18T11:17:28;10.80;88.10
40257;DHT22;25977;45.462;9.210;2022-12-18T11:19:59;10.90;88.00
40257;DHT22;25977;45.462;9.210;2022-12-18T11:22:28;10.90;87.70
40257;DHT22;25977;45.462;9.210;2022-12-18T11:24:58;11.00;87.60
40257;DHT22;25977;45.462;9.210;2022-12-18T11:27:25;11.00;87.40
40257;DHT22;25977;45.462;9.210;2022-12-18T11:29:51;11.00;87.10
40257;DHT22;25977;45.462;9.210;2022-12-18T11:32:39;11.10;87.30
40257;DHT22;25977;45.462;9.210;2022-12-18T11:40:47;10.80;86.80
40257;DHT22;25977;45.462;9.210;2022-12-18T11:43:38;10.70;86.80
40257;DHT22;25977;45.462;9.210;2022-12-18T11:46:12;10.70;87.10
40257;DHT22;25977;45.462;9.210;2022-12-18T11:48:45;10.80;87.30
40257;DHT22;25977;45.462;9.210;2022-12-18T11:51:32;10.80;87.10
40257;DHT22;25977;45.462;9.210;2022-12-18T11:54:00;10.80;86.40
40257;DHT22;25977;45.462;9.210;2022-12-18T11:56:32;11.00;86.60
40257;DHT22;25977;45.462;9.210;2022-12-18T12:02:14;10.80;85.60
40257;DHT22;25977;45.462;9.210;2022-12-18T12:21:18;10.80;85.50
40257;DHT22;25977;45.462;9.210;2022-12-18T12:24:03;10.80;85.40
40257;DHT22;25977;45.462;9.210;2022-12-18T12:26:40;10.80;85.20
40257;DHT22;25977;45.462;9.210;2022-12-18T12:32:17;10.80;85.20
40257;DHT22;25977;45.462;9.210;2022-12-18T12:37:46;10.90;84.70
40257;DHT22;25977;45.462;9.210;2022-12-18T12:40:18;10.90;84.80
40257;DHT22;25977;45.462;9.210;2022-12-18T12:42:49;10.80;84.90
40257;DHT22;25977;45.462;9.210;2022-12-18T12:45:40;10.80;84.90
40257;DHT22;25977;45.462;9.210;2022-12-18T12:48:11;10.90;85.00
40257;DHT22;25977;45.462;9.210;2022-12-18T12:50:41;10.80;84.80
40257;DHT22;25977;45.462;9.210;2022-12-18T12:53:21;11.00;85.00
40257;DHT22;25977;45.462;9.210;2022-12-18T12:55:49;10.90;85.00
40257;DHT22;25977;45.462;9.210;2022-12-18T12:58:37;10.90;85.20
40257;DHT22;25977;45.462;9.210;2022-12-18T13:01:18;10.80;85.00
40257;DHT22;25977;45.462;9.210;2022-12-18T13:03:58;10.90;84.90
40257;DHT22;25977;45.462;9.210;2022-12-18T13:06:53;10.80;84.70
40257;DHT22;25977;45.462;9.210;2022-12-18T13:09:22;10.90;84.90
40257;DHT22;25977;45.462;9.210;2022-12-18T13:11:48;10.80;84.70
40257;DHT22;25977;45.462;9.210;2022-12-18T13:14:34;10.80;84.70
40257;DHT22;25977;45.462;9.210;2022-12-18T13:19:56;10.80;84.70
40257;DHT22;25977;45.462;9.210;2022-12-18T13:25:00;10.80;85.00
40257;DHT22;25977;45.462;9.210;2022-12-18T13:38:33;10.90;84.40
40257;DHT22;25977;45.462;9.210;2022-12-18T13:43:46;10.80;84.50
40257;DHT22;25977;45.462;9.210;2022-12-18T13:46:29;10.90;84.60
40257;DHT22;25977;45.462;9.210;2022-12-18T13:51:42;10.70;84.60
40257;DHT22;25977;45.462;9.210;2022-12-18T13:54:19;10.90;84.80
40257;DHT22;25977;45.462;9.210;2022-12-18T13:56:47;10.70;84.90
40257;DHT22;25977;45.462;9.210;2022-12-18T13:59:21;10.70;85.00
40257;DHT22;25977;45.462;9.210;2022-12-18T14:04:33;10.60;85.20
40257;DHT22;25977;45.462;9.210;2022-12-18T14:07:05;10.60;85.40
40257;DHT22;25977;45.462;9.210;2022-12-18T14:09:39;10.60;85.70
40257;DHT22;25977;45.462;9.210;2022-12-18T14:12:06;10.60;86.00
40257;DHT22;25977;45.462;9.210;2022-12-18T14:14:52;10.60;86.00
40257;DHT22;25977;45.462;9.210;2022-12-18T14:17:19;10.60;86.50
40257;DHT22;25977;45.462;9.210;2022-12-18T14:19:47;10.60;86.10
40257;DHT22;25977;45.462;9.210;2022-12-18T14:22:18;10.50;86.20
40257;DHT22;25977;45.462;9.210;2022-12-18T14:24:46;10.60;86.10
40257;DHT22;25977;45.462;9.210;2022-12-18T14:27:23;10.40;86.10
40257;DHT22;25977;45.462;9.210;2022-12-18T14:29:50;10.40;86.20
40257;DHT22;25977;45.462;9.210;2022-12-18T14:32:17;10.40;86.30
40257;DHT22;25977;45.462;9.210;2022-12-18T14:34:51;10.40;86.20
40257;DHT22;25977;45.462;9.210;2022-12-18T14:37:24;10.30;86.20
40257;DHT22;25977;45.462;9.210;2022-12-18T14:39:59;10.30;86.10
40257;DHT22;25977;45.462;9.210;2022-12-18T14:42:26;10.30;86.20
40257;DHT22;25977;45.462;9.210;2022-12-18T14:45:38;10.20;86.30
40257;DHT22;25977;45.462;9.210;2022-12-18T14:48:15;10.20;86.60
40257;DHT22;25977;45.462;9.210;2022-12-18T14:50:42;10.10;86.80
40257;DHT22;25977;45.462;9.210;2022-12-18T14:53:23;10.10;86.90
40257;DHT22;25977;45.462;9.210;2022-12-18T14:55:51;10.10;87.00
40257;DHT22;25977;45.462;9.210;2022-12-18T14:58:17;10.30;87.20
40257;DHT22;25977;45.462;9.210;2022-12-18T15:00:43;10.00;86.90
40257;DHT22;25977;45.462;9.210;2022-12-18T15:03:09;9.90;87.00
40257;DHT22;25977;45.462;9.210;2022-12-18T15:05:35;10.20;87.10
40257;DHT22;25977;45.462;9.210;2022-12-18T15:08:02;9.90;87.00
40257;DHT22;25977;45.462;9.210;2022-12-18T15:10:31;9.90;87.00
40257;DHT22;25977;45.462;9.210;2022-12-18T15:18:32;9.80;87.00
40257;DHT22;25977;45.462;9.210;2022-12-18T15:21:07;9.80;87.10
40257;DHT22;25977;45.462;9.210;2022-12-18T15:23:46;9.80;87.20
40257;DHT22;25977;45.462;9.210;2022-12-18T15:26:14;9.80;87.20
40257;DHT22;25977;45.462;9.210;2022-12-18T15:33:36;9.70;87.50
40257;DHT22;25977;45.462;9.210;2022-12-18T15:36:08;9.70;87.60
40257;DHT22;25977;45.462;9.210;2022-12-18T15:38:34;9.60;87.80
40257;DHT22;25977;45.462;9.210;2022-12-18T15:41:00;9.60;87.90
40257;DHT22;25977;45.462;9.210;2022-12-18T15:43:27;9.60;88.00
40257;DHT22;25977;45.462;9.210;2022-12-18T15:46:11;9.60;88.10
40257;DHT22;25977;45.462;9.210;2022-12-18T15:48:42;9.60;88.10
40257;DHT22;25977;45.462;9.210;2022-12-18T15:51:18;9.60;88.10
40257;DHT22;25977;45.462;9.210;2022-12-18T15:53:44;9.60;88.20
40257;DHT22;25977;45.462;9.210;2022-12-18T15:56:11;9.60;88.30
40257;DHT22;25977;45.462;9.210;2022-12-18T15:58:56;9.50;88.20
40257;DHT22;25977;45.462;9.210;2022-12-18T16:01:29;9.50;88.30
40257;DHT22;25977;45.462;9.210;2022-12-18T16:03:56;9.50;88.60
40257;DHT22;25977;45.462;9.210;2022-12-18T16:06:22;9.80;88.90
40257;DHT22;25977;45.462;9.210;2022-12-18T16:08:48;9.50;88.40
40257;DHT22;25977;45.462;9.210;2022-12-18T16:11:31;9.50;88.30
40257;DHT22;25977;45.462;9.210;2022-12-18T16:16:37;9.50;88.40
40257;DHT22;25977;45.462;9.210;2022-12-18T16:19:03;9.90;88.70
40257;DHT22;25977;45.462;9.210;2022-12-18T16:21:29;9.50;88.60
40257;DHT22;25977;45.462;9.210;2022-12-18T16:23:54;9.40;88.60
40257;DHT22;25977;45.462;9.210;2022-12-18T16:26:20;9.50;88.70
40257;DHT22;25977;45.462;9.210;2022-12-18T16:28:45;9.40;88.70
40257;DHT22;25977;45.462;9.210;2022-12-18T16:31:11;9.40;88.70
40257;DHT22;25977;45.462;9.210;2022-12-18T16:33:37;9.40;88.80
40257;DHT22;25977;45.462;9.210;2022-12-18T16:36:03;9.40;88.80
40257;DHT22;25977;45.462;9.210;2022-12-18T16:38:28;9.40;88.80
40257;DHT22;25977;45.462;9.210;2022-12-18T16:40:54;9.50;88.80
40257;DHT22;25977;45.462;9.210;2022-12-18T16:43:55;9.60;88.90
40257;DHT22;25977;45.462;9.210;2022-12-18T16:46:21;9.40;88.80
40257;DHT22;25977;45.462;9.210;2022-12-18T16:48:46;9.40;88.70
40257;DHT22;25977;45.462;9.210;2022-12-18T16:51:12;9.30;88.80
40257;DHT22;25977;45.462;9.210;2022-12-18T16:53:37;9.40;88.90
40257;DHT22;25977;45.462;9.210;2022-12-18T16:56:03;9.30;88.90
40257;DHT22;25977;45.462;9.210;2022-12-18T16:58:29;9.30;88.90
40257;DHT22;25977;45.462;9.210;2022-12-18T17:00:55;9.30;88.80
40257;DHT22;25977;45.462;9.210;2022-12-18T17:03:20;9.20;88.90
40257;DHT22;25977;45.462;9.210;2022-12-18T17:05:46;9.20;88.90
40257;DHT22;25977;45.462;9.210;2022-12-18T17:08:12;9.20;88.90
40257;DHT22;25977;45.462;9.210;2022-12-18T17:10:37;9.20;89.00
40257;DHT22;25977;45.462;9.210;2022-12-18T17:13:03;9.10;88.90
40257;DHT22;25977;45.462;9.210;2022-12-18T17:15:28;9.10;89.00
40257;DHT22;25977;45.462;9.210;2022-12-18T17:17:54;9.10;89.10
40257;DHT22;25977;45.462;9.210;2022-12-18T17:20:20;9.10;89.20
40257;DHT22;25977;45.462;9.210;2022-12-18T17:22:46;9.10;89.30
40257;DHT22;25977;45.462;9.210;2022-12-18T17:25:12;9.20;89.60
40257;DHT22;25977;45.462;9.210;2022-12-18T17:27:38;9.10;89.60
40257;DHT22;25977;45.462;9.210;2022-12-18T17:30:04;9.00;89.60
40257;DHT22;25977;45.462;9.210;2022-12-18T17:32:30;9.00;89.60
40257;DHT22;25977;45.462;9.210;2022-12-18T17:34:55;9.00;89.60
40257;DHT22;25977;45.462;9.210;2022-12-18T17:37:21;9.00;89.70
40257;DHT22;25977;45.462;9.210;2022-12-18T17:39:47;9.00;89.60
40257;DHT22;25977;45.462;9.210;2022-12-18T17:42:13;9.00;89.60
40257;DHT22;25977;45.462;9.210;2022-12-18T17:44:40;9.00;89.70
40257;DHT22;25977;45.462;9.210;2022-12-18T17:47:07;9.00;89.80
40257;DHT22;25977;45.462;9.210;2022-12-18T17:49:34;9.00;89.70
40257;DHT22;25977;45.462;9.210;2022-12-18T17:52:00;9.00;89.80
40257;DHT22;25977;45.462;9.210;2022-12-18T17:54:25;9.00;89.90
40257;DHT22;25977;45.462;9.210;2022-12-18T17:56:51;9.00;89.90
40257;DHT22;25977;45.462;9.210;2022-12-18T17:59:17;9.00;89.90
40257;DHT22;25977;45.462;9.210;2022-12-18T18:01:44;9.00;89.90